Time;durP1;ratioP1;P1;durP2;ratioP2;P2;SDS_P1;SDS_P2;PMS_P1;PMS_P2;Temp;Humidity;BMP_temperature;BMP_pressure;BME280_temperature;BME280_humidity;BME280_pressure;Samples;Min_cycle;Max_cycle;Signal;HPM_P1;HPM_P2
2022/04/12 00:00:31;;;;;;;2.15;1.30;;;5.50;99.90;;;;;;6275889;22;20016;-82
2022/04/12 00:02:57;;;;;;;2.83;1.10;;;5.70;99.90;;;;;;6276031;22;20346;-82
2022/04/12 00:05:23;;;;;;;5.43;1.40;;;5.90;99.90;;;;;;6276089;22;20035;-82
2022/04/12 00:07:49;;;;;;;1.63;0.63;;;5.70;99.90;;;;;;6275953;22;20058;-82
2022/04/12 00:10:15;;;;;;;1.63;0.98;;;5.70;99.90;;;;;;6276289;22;20016;-82
2022/04/12 00:12:43;;;;;;;2.25;1.25;;;5.50;99.90;;;;;;6276233;22;20345;-81
2022/04/12 00:15:10;;;;;;;2.67;1.23;;;5.60;99.90;;;;;;6276302;22;20067;-83
2022/04/12 00:20:24;;;;;;;3.08;1.10;;;5.70;99.90;;;;;;6276550;22;20016;-84
2022/04/12 00:22:50;;;;;;;3.90;1.13;;;6.10;99.90;;;;;;6275919;22;20015;-85
2022/04/12 00:25:15;;;;;;;3.45;0.90;;;5.70;99.90;;;;;;6249014;22;20027;-82
2022/04/12 00:27:41;;;;;;;2.47;0.90;;;5.60;99.90;;;;;;6275873;22;20457;-82
2022/04/12 00:30:11;;;;;;;2.80;0.98;;;5.60;99.90;;;;;;6248549;22;20024;-82
2022/04/12 00:32:39;;;;;;;2.33;0.90;;;5.60;99.90;;;;;;6275787;22;20016;-82
2022/04/12 00:35:06;;;;;;;1.73;0.60;;;5.60;99.90;;;;;;6278413;22;20307;-82
2022/04/12 00:37:31;;;;;;;1.42;0.80;;;5.60;99.90;;;;;;6279302;22;20015;-81
2022/04/12 00:39:57;;;;;;;1.27;0.70;;;5.50;99.90;;;;;;6277271;22;20374;-83
2022/04/12 00:42:23;;;;;;;2.58;1.15;;;5.50;99.90;;;;;;6276878;22;20020;-84
2022/04/12 00:44:49;;;;;;;1.92;1.08;;;5.40;99.90;;;;;;6278120;22;20024;-82
2022/04/12 00:47:15;;;;;;;2.90;1.00;;;5.50;99.90;;;;;;6278185;22;20150;-84
2022/04/12 00:49:41;;;;;;;4.13;1.58;;;5.80;99.90;;;;;;6278168;22;20375;-82
2022/04/12 00:52:08;;;;;;;3.22;1.25;;;5.50;99.90;;;;;;6278446;22;20022;-82
2022/04/12 00:54:36;;;;;;;4.95;1.13;;;5.50;99.90;;;;;;6277827;22;20019;-83
2022/04/12 00:57:03;;;;;;;3.63;1.60;;;5.50;99.90;;;;;;6252148;22;20046;-82
2022/04/12 00:59:31;;;;;;;3.28;1.55;;;5.50;99.90;;;;;;6279886;22;20023;-83
2022/04/12 01:01:56;;;;;;;3.90;1.55;;;6.10;99.90;;;;;;6280896;22;20076;-82
2022/04/12 01:04:22;;;;;;;2.80;1.85;;;5.50;99.90;;;;;;6280958;22;20059;-82
2022/04/12 01:06:49;;;;;;;3.92;2.00;;;5.90;99.90;;;;;;6280922;22;20015;-83
2022/04/12 01:09:14;;;;;;;2.03;1.45;;;5.80;99.90;;;;;;6253311;22;20055;-83
2022/04/12 01:11:40;;;;;;;6.45;1.83;;;6.10;99.90;;;;;;6278393;22;20030;-85
2022/04/12 01:14:07;;;;;;;5.05;1.85;;;6.40;99.90;;;;;;6252543;22;20026;-84
2022/04/12 01:16:33;;;;;;;2.40;1.30;;;5.20;99.90;;;;;;6278479;22;20427;-85
2022/04/12 01:18:59;;;;;;;4.85;1.40;;;5.60;99.90;;;;;;6278081;22;20396;-85
2022/04/12 01:21:30;;;;;;;4.30;1.60;;;5.60;99.90;;;;;;6278227;22;20341;-83
2022/04/12 01:24:13;;;;;;;3.85;2.03;;;6.60;99.90;;;;;;6278040;22;20020;-85
2022/04/12 01:26:40;;;;;;;3.92;1.27;;;5.40;99.90;;;;;;6277529;22;20023;-83
2022/04/12 01:29:05;;;;;;;4.43;1.80;;;5.70;99.90;;;;;;6277502;22;20070;-82
2022/04/12 01:31:31;;;;;;;3.80;1.80;;;6.60;99.90;;;;;;6278126;22;20019;-85
2022/04/12 01:33:57;;;;;;;4.10;1.83;;;5.50;99.90;;;;;;6277782;22;20028;-83
2022/04/12 01:36:23;;;;;;;4.28;1.58;;;5.50;99.90;;;;;;6277795;22;20314;-82
2022/04/12 01:38:48;;;;;;;2.35;1.45;;;5.50;99.90;;;;;;6277316;22;20110;-82
2022/04/12 01:41:14;;;;;;;4.65;1.83;;;5.40;99.90;;;;;;6278394;22;20023;-82
2022/04/12 01:43:39;;;;;;;2.80;1.60;;;6.10;99.90;;;;;;6250084;22;20024;-84
2022/04/12 01:46:05;;;;;;;4.32;1.92;;;5.70;99.90;;;;;;6278356;22;20081;-94
2022/04/12 01:48:31;;;;;;;3.80;1.48;;;6.10;99.90;;;;;;6279430;22;20157;-91
2022/04/12 01:50:56;;;;;;;4.50;1.70;;;5.40;99.90;;;;;;6251438;22;20015;-82
2022/04/12 01:53:22;;;;;;;3.67;2.00;;;5.40;99.90;;;;;;6277556;22;20129;-89
2022/04/12 01:55:48;;;;;;;4.45;1.75;;;5.30;99.90;;;;;;6278038;22;20047;-89
2022/04/12 01:58:13;;;;;;;3.10;1.80;;;6.30;99.90;;;;;;6277706;22;20058;-90
2022/04/12 02:00:40;;;;;;;3.25;1.83;;;5.70;99.90;;;;;;6278241;22;20020;-89
2022/04/12 02:03:06;;;;;;;3.25;1.30;;;5.30;99.90;;;;;;6278193;22;20105;-91
2022/04/12 02:05:31;;;;;;;2.35;1.33;;;5.30;99.90;;;;;;6250813;22;20118;-89
2022/04/12 02:07:57;;;;;;;2.95;1.40;;;5.50;99.90;;;;;;6277820;22;20054;-90
2022/04/12 02:10:23;;;;;;;2.08;1.02;;;5.10;99.90;;;;;;6278297;22;20031;-86
2022/04/12 02:12:49;;;;;;;3.33;1.58;;;5.10;99.90;;;;;;6278497;22;20020;-89
2022/04/12 02:15:16;;;;;;;2.40;1.40;;;5.20;99.90;;;;;;6276956;22;20046;-90
2022/04/12 02:17:42;;;;;;;5.55;1.70;;;5.10;99.90;;;;;;6277330;22;20031;-90
2022/04/12 02:20:08;;;;;;;7.28;1.33;;;5.10;99.90;;;;;;6277581;22;20015;-89
2022/04/12 02:22:35;;;;;;;3.20;1.63;;;5.10;99.90;;;;;;6277134;22;20019;-90
2022/04/12 02:25:01;;;;;;;5.78;1.83;;;5.10;99.90;;;;;;6277273;22;20051;-88
2022/04/12 02:27:27;;;;;;;3.35;1.50;;;5.00;99.90;;;;;;6249207;22;20070;-88
2022/04/12 02:29:52;;;;;;;4.97;2.25;;;5.20;99.90;;;;;;6276798;22;20016;-82
2022/04/12 02:32:18;;;;;;;3.53;1.75;;;5.00;99.90;;;;;;6276779;22;20512;-86
2022/04/12 02:34:44;;;;;;;3.47;2.35;;;5.00;99.90;;;;;;6276685;22;20043;-82
2022/04/12 02:37:09;;;;;;;6.53;1.90;;;4.90;99.90;;;;;;6277070;22;20019;-83
2022/04/12 02:39:35;;;;;;;3.60;2.00;;;4.90;99.90;;;;;;6277210;22;20084;-89
2022/04/12 02:42:01;;;;;;;5.28;2.00;;;5.30;99.90;;;;;;6276841;22;20081;-87
2022/04/12 02:44:27;;;;;;;2.70;1.58;;;4.90;99.90;;;;;;6248879;22;20069;-85
2022/04/12 02:46:53;;;;;;;2.83;1.58;;;4.90;99.90;;;;;;6276388;22;20020;-82
2022/04/12 02:49:19;;;;;;;3.13;1.70;;;5.90;99.90;;;;;;6276572;22;20030;-85
2022/04/12 02:51:45;;;;;;;2.90;1.48;;;4.80;99.90;;;;;;6276723;22;20346;-85
2022/04/12 02:54:12;;;;;;;2.92;1.42;;;4.80;99.90;;;;;;6249086;22;20443;-89
2022/04/12 02:56:37;;;;;;;5.32;1.60;;;5.00;99.90;;;;;;6276278;22;20016;-82
2022/04/12 02:59:03;;;;;;;2.53;1.33;;;5.50;99.90;;;;;;6276537;22;20020;-86
2022/04/12 03:01:29;;;;;;;4.40;1.70;;;4.70;99.90;;;;;;6276497;22;20121;-84
2022/04/12 03:03:57;;;;;;;3.63;1.60;;;4.70;99.90;;;;;;6276200;22;20020;-86
2022/04/12 03:06:23;;;;;;;3.20;1.67;;;4.60;99.90;;;;;;6275845;22;20054;-86
2022/04/12 03:08:48;;;;;;;3.28;1.15;;;4.60;99.90;;;;;;6276245;22;20020;-81
2022/04/12 03:11:14;;;;;;;3.00;1.50;;;4.70;99.90;;;;;;6276537;22;20043;-83
2022/04/12 03:13:40;;;;;;;3.33;1.58;;;4.50;99.90;;;;;;6276862;22;20324;-82
2022/04/12 03:16:05;;;;;;;2.92;1.33;;;4.80;99.90;;;;;;6276064;22;20030;-84
2022/04/12 03:18:31;;;;;;;3.83;1.70;;;4.50;99.90;;;;;;6248793;22;20024;-84
2022/04/12 03:20:57;;;;;;;2.60;1.30;;;4.50;99.90;;;;;;6276411;22;20038;-82
2022/04/12 03:23:22;;;;;;;3.55;1.92;;;4.00;99.90;;;;;;6276268;22;20062;-86
2022/04/12 03:25:50;;;;;;;6.50;1.85;;;4.40;99.90;;;;;;6275858;22;20029;-81
2022/04/12 03:28:16;;;;;;;6.60;1.63;;;4.50;99.90;;;;;;6275674;22;20070;-82
2022/04/12 03:30:42;;;;;;;5.82;2.20;;;5.40;99.90;;;;;;6276108;22;20349;-82
2022/04/12 03:33:08;;;;;;;4.05;1.83;;;4.50;99.90;;;;;;6276043;22;20019;-82
2022/04/12 03:35:34;;;;;;;3.35;1.80;;;4.40;99.90;;;;;;6276345;22;20023;-82
2022/04/12 03:38:01;;;;;;;7.07;2.53;;;4.50;99.90;;;;;;6248087;22;20024;-82
2022/04/12 03:40:30;;;;;;;4.85;2.15;;;4.90;99.90;;;;;;6248776;22;20476;-83
2022/04/12 03:42:58;;;;;;;2.75;1.73;;;4.50;99.90;;;;;;6275390;22;20018;-84
2022/04/12 03:45:24;;;;;;;4.07;2.10;;;4.30;99.90;;;;;;6275953;22;20012;-81
2022/04/12 03:47:50;;;;;;;3.22;1.80;;;4.50;99.90;;;;;;6275609;22;20051;-82
2022/04/12 03:50:15;;;;;;;4.40;2.47;;;4.40;99.90;;;;;;6275864;22;20375;-82
2022/04/12 03:52:41;;;;;;;5.07;2.40;;;4.40;99.90;;;;;;6276011;22;20031;-84
2022/04/12 03:55:10;;;;;;;4.28;2.08;;;4.40;99.90;;;;;;6276013;22;20024;-83
2022/04/12 03:57:35;;;;;;;4.88;2.83;;;4.40;99.90;;;;;;6275834;22;20028;-82
2022/04/12 04:00:02;;;;;;;4.30;2.15;;;4.40;99.90;;;;;;6275718;22;20026;-82
2022/04/12 04:02:28;;;;;;;4.60;2.90;;;4.30;99.90;;;;;;6276006;22;20319;-82
2022/04/12 04:04:53;;;;;;;4.40;2.55;;;4.40;99.90;;;;;;6275723;22;20027;-82
2022/04/12 04:07:19;;;;;;;4.35;2.35;;;4.30;99.90;;;;;;6276138;22;20016;-82
2022/04/12 04:09:45;;;;;;;4.07;2.33;;;5.00;99.90;;;;;;6249351;22;20028;-86
2022/04/12 04:12:11;;;;;;;6.07;2.30;;;4.80;99.90;;;;;;6276508;22;20058;-83
2022/04/12 04:14:39;;;;;;;4.65;2.00;;;4.20;99.90;;;;;;6276839;22;20011;-83
2022/04/12 04:17:04;;;;;;;6.38;2.30;;;4.00;99.90;;;;;;6278040;22;20015;-82
2022/04/12 04:19:30;;;;;;;5.47;2.20;;;4.10;99.90;;;;;;6277478;22;20103;-85
2022/04/12 04:21:56;;;;;;;5.15;3.00;;;4.10;99.90;;;;;;6279021;22;20034;-81
2022/04/12 04:24:23;;;;;;;2.95;1.67;;;3.90;99.90;;;;;;6279893;22;20016;-83
2022/04/12 04:26:54;;;;;;;5.00;2.75;;;4.40;99.90;;;;;;6254147;22;20022;-82
2022/04/12 04:29:33;;;;;;;4.03;2.60;;;4.10;99.90;;;;;;6280659;22;20020;-83
2022/04/12 04:31:59;;;;;;;3.40;2.00;;;4.10;99.90;;;;;;6253330;22;20020;-83
2022/04/12 04:38:09;;;;;;;5.60;2.80;;;4.10;99.90;;;;;;6278688;22;20061;-82
2022/04/12 04:40:35;;;;;;;4.82;2.30;;;4.10;99.90;;;;;;6251398;22;20024;-81
2022/04/12 04:43:02;;;;;;;4.22;2.05;;;4.80;99.90;;;;;;6278270;22;20062;-85
2022/04/12 04:45:28;;;;;;;4.63;2.40;;;5.40;99.90;;;;;;6278892;22;20098;-83
2022/04/12 04:47:56;;;;;;;6.35;3.28;;;4.40;99.90;;;;;;6279343;22;20039;-83
2022/04/12 04:50:27;;;;;;;7.05;3.35;;;4.10;99.90;;;;;;6278502;22;20027;-83
2022/04/12 04:52:53;;;;;;;6.03;2.95;;;4.10;99.90;;;;;;6278496;22;20016;-82
2022/04/12 04:55:19;;;;;;;5.07;2.60;;;4.10;99.90;;;;;;6278566;22;20016;-83
2022/04/12 04:57:46;;;;;;;7.20;3.08;;;4.10;99.90;;;;;;6278055;22;20519;-84
2022/04/12 05:00:16;;;;;;;5.88;3.10;;;4.10;99.90;;;;;;6279970;22;20090;-85
2022/04/12 05:02:47;;;;;;;9.02;2.63;;;4.10;99.90;;;;;;6278303;22;20512;-83
2022/04/12 05:05:13;;;;;;;4.95;2.85;;;4.20;99.90;;;;;;6278208;22;20042;-82
2022/04/12 05:07:41;;;;;;;5.43;3.20;;;4.40;99.90;;;;;;6279228;22;20062;-84
2022/04/12 05:10:08;;;;;;;6.80;3.78;;;4.20;99.90;;;;;;6278909;22;20109;-82
2022/04/12 05:12:34;;;;;;;7.55;3.17;;;4.30;99.90;;;;;;6280257;22;20130;-82
2022/04/12 05:14:59;;;;;;;9.38;4.38;;;4.30;99.90;;;;;;6278183;22;20019;-84
2022/04/12 05:17:26;;;;;;;6.20;3.90;;;4.30;99.90;;;;;;6277326;22;20042;-83
2022/04/12 05:19:52;;;;;;;10.35;3.88;;;4.30;99.90;;;;;;6277210;22;20461;-82
2022/04/12 05:22:18;;;;;;;9.95;4.53;;;5.30;99.90;;;;;;6277639;22;20024;-84
2022/04/12 05:24:44;;;;;;;8.90;4.50;;;4.30;99.90;;;;;;6277491;22;20020;-81
2022/04/12 05:27:10;;;;;;;7.60;3.53;;;4.40;99.90;;;;;;6276625;22;20019;-82
2022/04/12 05:29:36;;;;;;;6.88;4.13;;;5.40;99.90;;;;;;6249996;22;20451;-82
2022/04/12 05:32:03;;;;;;;6.78;4.18;;;5.20;99.90;;;;;;6277137;22;20071;-82
2022/04/12 05:34:28;;;;;;;7.93;3.60;;;4.40;99.90;;;;;;6277384;22;20019;-82
2022/04/12 05:36:54;;;;;;;10.55;4.75;;;5.30;99.90;;;;;;6277162;22;20016;-80
2022/04/12 05:39:19;;;;;;;9.40;4.97;;;4.60;99.90;;;;;;6277001;22;20016;-83
2022/04/12 05:41:48;;;;;;;5.13;3.15;;;5.40;99.90;;;;;;6276653;22;20445;-82
2022/04/12 05:44:14;;;;;;;5.72;3.30;;;4.70;99.90;;;;;;6249145;22;20026;-84
2022/04/12 05:46:40;;;;;;;6.10;3.65;;;4.60;99.90;;;;;;6276826;22;20449;-84
2022/04/12 06:12:27;;;;;;;6.63;3.88;;;6.10;99.90;;;;;;6234701;22;20020;-84
2022/04/12 06:25:56;;;;;;;8.48;4.70;;;6.30;99.90;;;;;;6264421;22;20805;-87
2022/04/12 06:28:21;;;;;;;7.93;3.90;;;6.30;99.90;;;;;;6276007;22;20015;-87
2022/04/12 06:30:50;;;;;;;6.97;4.53;;;6.20;99.90;;;;;;6276651;22;20085;-84
2022/04/12 06:33:16;;;;;;;8.50;4.75;;;7.50;99.90;;;;;;6249527;22;20024;-86
2022/04/12 06:35:42;;;;;;;11.00;4.53;;;7.30;99.90;;;;;;6276232;22;20066;-84
2022/04/12 06:38:09;;;;;;;8.25;4.53;;;6.50;99.90;;;;;;6249931;22;20027;-86
2022/04/12 06:40:35;;;;;;;7.50;4.30;;;6.60;99.90;;;;;;6276774;22;20020;-88
2022/04/12 06:43:01;;;;;;;7.65;4.75;;;6.70;99.90;;;;;;6248954;22;20457;-87
2022/04/12 06:45:26;;;;;;;6.03;3.80;;;7.30;99.90;;;;;;6276594;22;20016;-87
2022/04/12 06:47:59;;;;;;;6.70;4.22;;;6.80;99.90;;;;;;6276697;22;20070;-87
2022/04/12 06:50:26;;;;;;;10.57;5.15;;;7.80;99.90;;;;;;6276434;22;20020;-87
2022/04/12 06:52:54;;;;;;;9.55;4.50;;;8.00;99.90;;;;;;6276293;22;20399;-86
2022/04/12 06:55:20;;;;;;;8.77;4.78;;;8.20;99.90;;;;;;6276261;22;20019;-86
2022/04/12 06:57:45;;;;;;;10.85;5.15;;;7.20;99.90;;;;;;6276543;22;20050;-87
2022/04/12 07:00:12;;;;;;;8.57;4.28;;;8.10;99.90;;;;;;6276016;22;20039;-84
2022/04/12 07:02:38;;;;;;;7.40;3.95;;;7.30;99.90;;;;;;6276513;22;20019;-89
2022/04/12 07:05:05;;;;;;;9.23;4.38;;;7.30;99.90;;;;;;6276473;22;20090;-84
2022/04/12 07:07:31;;;;;;;9.90;4.90;;;7.40;99.90;;;;;;6276283;22;20046;-80
2022/04/12 07:09:57;;;;;;;7.68;4.78;;;7.20;99.90;;;;;;6276371;22;20064;-87
2022/04/12 07:12:24;;;;;;;7.75;4.93;;;7.50;99.90;;;;;;6275626;22;20023;-80
2022/04/12 07:14:50;;;;;;;6.82;4.75;;;7.50;99.90;;;;;;6248805;22;20031;-86
2022/04/12 07:17:16;;;;;;;9.93;5.00;;;7.40;99.90;;;;;;6275917;22;20450;-85
2022/04/12 07:19:41;;;;;;;8.65;4.93;;;8.30;99.90;;;;;;6248676;22;20020;-80
2022/04/12 07:22:09;;;;;;;7.25;4.38;;;7.60;99.90;;;;;;6276008;22;20019;-80
2022/04/12 07:24:35;;;;;;;6.95;3.70;;;8.60;99.90;;;;;;6249008;22;20027;-81
2022/04/12 07:27:01;;;;;;;7.63;3.90;;;7.70;99.90;;;;;;6223152;22;20049;-81
2022/04/12 07:29:27;;;;;;;12.68;5.15;;;7.70;99.90;;;;;;6276216;22;20094;-80
2022/04/12 07:31:52;;;;;;;8.60;4.85;;;8.10;99.90;;;;;;6248593;22;20105;-83
2022/04/12 07:34:18;;;;;;;8.45;4.80;;;7.80;99.90;;;;;;6276312;22;20019;-81
2022/04/12 07:36:47;;;;;;;8.60;4.32;;;8.80;99.90;;;;;;6248523;22;20402;-80
2022/04/12 07:39:16;;;;;;;7.47;3.97;;;8.00;99.90;;;;;;6275799;22;20024;-84
2022/04/12 07:41:42;;;;;;;8.50;4.47;;;8.10;99.90;;;;;;6248157;22;20065;-80
2022/04/12 07:44:08;;;;;;;7.45;4.07;;;8.90;99.90;;;;;;6276289;22;20078;-82
2022/04/12 07:46:33;;;;;;;7.32;4.35;;;8.40;99.90;;;;;;6249204;22;20020;-82
2022/04/12 07:48:59;;;;;;;6.32;4.50;;;8.60;99.90;;;;;;6275885;22;20024;-81
2022/04/12 07:51:25;;;;;;;7.95;4.60;;;9.50;99.90;;;;;;6248591;22;20081;-82
2022/04/12 07:53:50;;;;;;;7.25;4.22;;;9.00;99.90;;;;;;6275797;22;20020;-82
2022/04/12 07:56:17;;;;;;;8.05;5.07;;;9.30;99.90;;;;;;6248812;22;20016;-81
2022/04/12 07:58:43;;;;;;;7.50;4.53;;;9.30;99.90;;;;;;6248698;22;20515;-85
2022/04/12 08:01:08;;;;;;;8.07;4.10;;;9.60;99.90;;;;;;6223132;22;20019;-81
2022/04/12 08:03:36;;;;;;;6.68;4.20;;;9.70;99.90;;;;;;6276058;22;20508;-81
2022/04/12 08:06:02;;;;;;;7.00;4.43;;;9.80;99.90;;;;;;6275843;22;20114;-83
2022/04/12 08:08:29;;;;;;;7.50;3.65;;;9.90;99.90;;;;;;6276076;22;20046;-82
2022/04/12 08:10:54;;;;;;;6.90;3.67;;;9.90;99.90;;;;;;6248452;22;20081;-82
2022/04/12 08:13:20;;;;;;;10.70;5.18;;;10.20;99.90;;;;;;6275193;22;20016;-82
2022/04/12 08:15:46;;;;;;;7.32;4.30;;;10.50;99.90;;;;;;6275751;22;20047;-81
2022/04/12 08:18:12;;;;;;;8.55;4.97;;;10.40;99.90;;;;;;6275905;22;20307;-81
2022/04/12 08:20:38;;;;;;;6.70;4.72;;;10.90;99.90;;;;;;6275906;22;20054;-81
2022/04/12 08:23:04;;;;;;;9.00;5.72;;;10.90;99.90;;;;;;6248947;22;20085;-81
2022/04/12 08:25:29;;;;;;;9.48;4.65;;;10.90;99.90;;;;;;6276295;22;20019;-80
2022/04/12 08:27:55;;;;;;;6.97;4.03;;;11.00;99.90;;;;;;6248960;22;20069;-82
2022/04/12 08:30:21;;;;;;;8.60;4.57;;;11.10;99.90;;;;;;6248671;22;20023;-80
2022/04/12 08:32:47;;;;;;;7.05;4.90;;;11.20;99.90;;;;;;6275444;22;20020;-80
2022/04/12 08:35:13;;;;;;;8.80;4.55;;;11.30;99.90;;;;;;6275993;22;20094;-84
2022/04/12 08:37:39;;;;;;;7.75;4.55;;;11.50;99.90;;;;;;6248380;22;20341;-81
2022/04/12 08:40:06;;;;;;;9.85;5.53;;;11.60;99.90;;;;;;6248608;22;20103;-83
2022/04/12 08:42:31;;;;;;;9.13;5.07;;;11.70;99.90;;;;;;6247973;22;20028;-81
2022/04/12 08:44:58;;;;;;;8.90;5.03;;;11.80;99.90;;;;;;6275727;22;20077;-80
2022/04/12 08:47:24;;;;;;;6.63;4.25;;;11.90;99.90;;;;;;6275104;22;20450;-81
2022/04/12 08:49:50;;;;;;;6.22;4.13;;;12.20;99.90;;;;;;6275820;22;20019;-81
2022/04/12 08:52:16;;;;;;;8.00;4.05;;;12.10;99.90;;;;;;6275569;22;20095;-81
2022/04/12 08:54:44;;;;;;;9.50;4.72;;;12.20;99.90;;;;;;6275658;22;20020;-82
2022/04/12 08:57:11;;;;;;;7.85;4.40;;;12.30;99.90;;;;;;6275158;22;20026;-82
2022/04/12 08:59:38;;;;;;;8.68;4.60;;;12.70;99.90;;;;;;6275857;22;20401;-81
2022/04/12 09:02:07;;;;;;;8.95;5.30;;;12.50;99.90;;;;;;6248469;22;20078;-81
2022/04/12 09:04:33;;;;;;;8.05;4.47;;;12.50;99.90;;;;;;6250146;22;20337;-81
2022/04/12 09:07:00;;;;;;;9.63;4.57;;;12.50;99.90;;;;;;6250179;22;20034;-81
2022/04/12 09:09:30;;;;;;;7.18;4.03;;;12.60;99.90;;;;;;6277431;22;20345;-82
2022/04/12 09:12:04;;;;;;;6.45;4.22;;;12.70;99.90;;;;;;6277140;22;20056;-82
2022/04/12 09:14:54;;;;;;;7.68;4.05;;;12.80;99.90;;;;;;6249833;22;20023;-83
2022/04/12 09:17:41;;;;;;;6.75;4.00;;;12.80;99.90;;;;;;6277375;22;20016;-82
2022/04/12 09:20:17;;;;;;;7.18;3.38;;;13.00;99.90;;;;;;6250143;22;20020;-81
2022/04/12 09:22:43;;;;;;;6.22;3.85;;;13.20;99.90;;;;;;6277302;22;20069;-81
2022/04/12 09:25:10;;;;;;;7.45;4.65;;;13.30;99.90;;;;;;6276710;22;20026;-82
2022/04/12 09:27:37;;;;;;;7.55;4.43;;;13.40;99.90;;;;;;6276990;22;20027;-81
2022/04/12 09:30:11;;;;;;;8.23;4.53;;;13.30;99.90;;;;;;6277386;22;20042;-81
2022/04/12 09:32:44;;;;;;;7.68;3.67;;;13.30;99.90;;;;;;6250201;22;20024;-82
2022/04/12 09:35:10;;;;;;;8.68;4.55;;;13.40;99.90;;;;;;6277344;22;20093;-83
2022/04/12 09:37:38;;;;;;;8.93;4.10;;;13.50;99.90;;;;;;6276602;22;20023;-82
2022/04/12 09:40:11;;;;;;;10.15;4.40;;;13.60;99.90;;;;;;6277462;22;20019;-81
2022/04/12 09:42:51;;;;;;;7.72;4.13;;;13.70;99.90;;;;;;6276805;22;20028;-81
2022/04/12 09:45:26;;;;;;;7.90;4.70;;;13.90;99.90;;;;;;6276830;22;20046;-82
2022/04/12 09:47:54;;;;;;;6.32;4.30;;;14.10;99.90;;;;;;6276837;22;20537;-82
2022/04/12 09:50:21;;;;;;;7.32;4.32;;;14.30;99.90;;;;;;6277535;22;20087;-82
2022/04/12 09:53:00;;;;;;;17.00;5.25;;;14.40;99.90;;;;;;6277594;22;20016;-81
2022/04/12 09:55:33;;;;;;;7.25;4.43;;;14.60;99.90;;;;;;6277781;22;20047;-82
2022/04/12 09:58:01;;;;;;;8.32;4.65;;;14.70;99.90;;;;;;6277348;22;20472;-82
2022/04/12 10:00:30;;;;;;;6.35;4.47;;;14.80;99.90;;;;;;6277096;22;20492;-82
2022/04/12 10:03:04;;;;;;;7.25;3.97;;;15.00;99.90;;;;;;6277471;22;20091;-82
2022/04/12 10:05:30;;;;;;;6.20;4.30;;;15.20;99.90;;;;;;6277439;22;20019;-82
2022/04/12 10:08:00;;;;;;;6.55;4.32;;;15.30;99.90;;;;;;6277407;22;20018;-82
2022/04/12 10:10:26;;;;;;;6.88;4.68;;;15.50;99.90;;;;;;6277223;22;20031;-82
2022/04/12 10:12:57;;;;;;;8.00;4.85;;;15.60;99.90;;;;;;6276407;22;20012;-83
2022/04/12 10:15:24;;;;;;;6.05;4.30;;;15.60;99.90;;;;;;6277167;22;20031;-82
2022/04/12 10:17:51;;;;;;;5.82;3.92;;;15.70;99.90;;;;;;6249822;22;20012;-82
2022/04/12 10:20:18;;;;;;;9.82;6.65;;;15.90;99.90;;;;;;6277247;22;20471;-82
2022/04/12 10:22:48;;;;;;;7.40;4.68;;;16.00;99.90;;;;;;6277076;22;20338;-82
2022/04/12 10:25:22;;;;;;;8.18;4.97;;;16.00;99.90;;;;;;6249842;22;20019;-82
2022/04/12 10:27:59;;;;;;;8.53;5.00;;;16.00;99.90;;;;;;6277093;22;20018;-82
2022/04/12 10:30:29;;;;;;;7.72;4.63;;;15.90;99.90;;;;;;6277257;22;20308;-82
2022/04/12 10:33:00;;;;;;;7.28;4.68;;;16.00;99.90;;;;;;6277436;22;20012;-83
2022/04/12 10:35:27;;;;;;;6.93;3.92;;;16.20;99.90;;;;;;6276973;22;20042;-82
2022/04/12 10:37:57;;;;;;;8.63;4.85;;;16.30;99.90;;;;;;6277163;22;20015;-82
2022/04/12 10:40:24;;;;;;;9.55;4.90;;;16.40;99.90;;;;;;6276512;22;20328;-82
2022/04/12 10:42:51;;;;;;;7.38;4.88;;;16.60;99.90;;;;;;6276023;22;20019;-82
2022/04/12 10:45:29;;;;;;;8.15;4.95;;;16.80;99.90;;;;;;6277399;22;20099;-85
2022/04/12 10:48:00;;;;;;;9.40;5.68;;;16.70;99.90;;;;;;6252401;22;20377;-85
2022/04/12 10:50:29;;;;;;;6.82;4.07;;;16.90;99.90;;;;;;6286288;22;20023;-84
2022/04/12 10:52:55;;;;;;;7.72;4.40;;;17.00;99.90;;;;;;6253821;22;20020;-87
2022/04/12 10:55:26;;;;;;;7.80;3.85;;;17.10;99.90;;;;;;6249268;22;20121;-87
2022/04/12 10:57:53;;;;;;;8.43;4.43;;;17.20;99.90;;;;;;6276909;22;20020;-83
2022/04/12 11:00:22;;;;;;;9.40;4.70;;;17.30;99.90;;;;;;6277174;22;20081;-87
2022/04/12 11:02:57;;;;;;;10.73;5.18;;;17.50;99.70;;;;;;6249342;22;20078;-88
2022/04/12 11:05:42;;;;;;;5.90;4.10;;;17.60;99.60;;;;;;6249712;22;20025;-89
2022/04/12 11:08:13;;;;;;;8.95;5.05;;;17.60;98.90;;;;;;6277683;22;20055;-87
2022/04/12 11:10:40;;;;;;;5.85;3.88;;;17.80;99.90;;;;;;6276952;22;20446;-88
2022/04/12 11:13:08;;;;;;;10.38;4.32;;;18.00;99.70;;;;;;6276733;22;20099;-91
2022/04/12 11:15:35;;;;;;;5.93;3.55;;;18.10;99.50;;;;;;6277189;22;20016;-89
2022/04/12 11:18:11;;;;;;;7.90;5.03;;;18.10;99.50;;;;;;6276547;22;20031;-89
2022/04/12 11:20:38;;;;;;;10.50;5.15;;;18.10;98.00;;;;;;6276916;22;20102;-88
2022/04/12 11:23:12;;;;;;;9.07;5.18;;;18.10;98.30;;;;;;6276414;22;20066;-82
2022/04/12 11:25:46;;;;;;;8.73;5.20;;;18.10;99.80;;;;;;6276471;22;20030;-82
2022/04/12 11:28:17;;;;;;;8.93;5.35;;;18.30;98.70;;;;;;6277268;22;20019;-82
2022/04/12 11:30:57;;;;;;;6.57;4.55;;;18.30;99.20;;;;;;6250144;22;20031;-83
2022/04/12 11:33:27;;;;;;;7.68;3.42;;;18.40;99.60;;;;;;6276017;22;20020;-84
2022/04/12 11:35:54;;;;;;;6.85;3.67;;;18.50;99.00;;;;;;6276656;22;20038;-85
2022/04/12 11:38:20;;;;;;;8.38;4.70;;;18.50;98.30;;;;;;6276470;22;20027;-83
2022/04/12 11:40:46;;;;;;;5.80;3.83;;;18.50;96.70;;;;;;6275928;22;20504;-83
2022/04/12 11:43:26;;;;;;;6.85;4.53;;;18.50;97.60;;;;;;6275898;22;20023;-84
2022/04/12 11:45:57;;;;;;;9.20;4.57;;;18.50;96.80;;;;;;6276310;22;20012;-84
2022/04/12 11:48:27;;;;;;;7.43;4.72;;;18.40;97.60;;;;;;6276956;22;20437;-85
2022/04/12 11:50:54;;;;;;;8.32;5.03;;;18.40;96.80;;;;;;6278639;22;20028;-84
2022/04/12 11:53:22;;;;;;;9.95;4.18;;;18.40;98.00;;;;;;6277470;22;20019;-86
2022/04/12 11:55:49;;;;;;;5.38;3.58;;;18.50;98.20;;;;;;6278829;22;20473;-87
2022/04/12 11:58:18;;;;;;;9.25;4.32;;;18.60;99.50;;;;;;6281331;22;20054;-91
2022/04/12 12:00:45;;;;;;;6.40;3.67;;;18.70;97.10;;;;;;6277398;22;20031;-91
2022/04/12 12:03:17;;;;;;;6.03;3.55;;;18.80;99.00;;;;;;6249914;22;20091;-91
2022/04/12 12:05:47;;;;;;;6.82;3.63;;;18.80;96.70;;;;;;6251050;22;20055;-85
2022/04/12 12:08:18;;;;;;;6.43;3.65;;;18.80;97.90;;;;;;6277940;22;20016;-91
2022/04/12 12:10:43;;;;;;;7.13;3.88;;;18.90;97.40;;;;;;6254134;22;20016;-91
2022/04/12 12:13:09;;;;;;;6.45;3.30;;;19.00;96.90;;;;;;6279064;22;20341;-90
2022/04/12 12:15:35;;;;;;;6.15;3.75;;;19.00;96.20;;;;;;6279083;22;20019;-88
2022/04/12 12:18:06;;;;;;;8.23;4.07;;;19.00;98.50;;;;;;6277743;22;20022;-89
2022/04/12 12:20:34;;;;;;;6.95;4.25;;;19.00;97.30;;;;;;6271705;22;20050;-87
2022/04/12 12:23:06;;;;;;;6.00;3.90;;;19.10;97.10;;;;;;6277527;22;20015;-83
2022/04/12 12:25:42;;;;;;;8.90;5.28;;;19.10;97.20;;;;;;6282748;22;20031;-85
2022/04/12 12:28:18;;;;;;;9.15;3.88;;;19.00;97.50;;;;;;6278814;22;20098;-85
2022/04/12 12:30:49;;;;;;;8.90;4.38;;;19.10;97.70;;;;;;6275469;22;20019;-85
2022/04/12 12:33:15;;;;;;;7.65;4.28;;;19.00;97.30;;;;;;6276162;22;20024;-83
2022/04/12 12:35:47;;;;;;;10.00;4.93;;;18.90;96.80;;;;;;6276323;22;20019;-83
2022/04/12 12:38:17;;;;;;;7.95;4.32;;;18.90;96.80;;;;;;6251615;22;20064;-83
2022/04/12 12:40:44;;;;;;;5.15;2.83;;;18.90;97.40;;;;;;6277693;22;20087;-82
2022/04/12 12:43:12;;;;;;;8.95;4.43;;;19.00;97.60;;;;;;6250057;22;20453;-84
2022/04/12 12:45:45;;;;;;;5.40;3.35;;;19.00;97.70;;;;;;6250909;22;20050;-82
2022/04/12 12:48:13;;;;;;;6.68;3.20;;;19.10;98.10;;;;;;6277526;22;20086;-83
2022/04/12 12:50:39;;;;;;;6.43;3.20;;;19.20;97.60;;;;;;6277016;22;20102;-83
2022/04/12 12:53:07;;;;;;;6.68;4.63;;;19.20;98.10;;;;;;6277578;22;20070;-84
2022/04/12 12:55:41;;;;;;;5.25;2.80;;;19.30;96.30;;;;;;6278393;22;20015;-83
2022/04/12 12:58:09;;;;;;;5.47;3.33;;;19.40;97.70;;;;;;6277642;22;20023;-84
2022/04/12 13:00:35;;;;;;;5.72;3.00;;;19.40;96.30;;;;;;6277712;22;20054;-86
2022/04/12 13:03:02;;;;;;;5.57;2.90;;;19.50;96.80;;;;;;6277067;22;20031;-86
2022/04/12 13:05:28;;;;;;;6.28;2.92;;;19.20;96.90;;;;;;6249838;22;20028;-84
2022/04/12 13:07:56;;;;;;;5.55;3.20;;;19.30;97.30;;;;;;6277179;22;20016;-85
2022/04/12 13:10:22;;;;;;;5.65;3.45;;;19.40;98.60;;;;;;6277603;22;20019;-86
2022/04/12 13:12:49;;;;;;;5.68;3.10;;;19.60;98.70;;;;;;6249462;22;20085;-86
2022/04/12 13:15:15;;;;;;;7.72;4.10;;;19.60;97.30;;;;;;6277476;22;20020;-85
2022/04/12 13:17:42;;;;;;;8.88;3.50;;;19.60;97.00;;;;;;6249963;22;20073;-85
2022/04/12 13:20:11;;;;;;;4.13;2.60;;;19.60;97.60;;;;;;6277558;22;20011;-88
2022/04/12 13:22:37;;;;;;;6.60;2.70;;;19.60;97.80;;;;;;6276370;22;20024;-86
2022/04/12 13:25:04;;;;;;;5.70;2.80;;;19.60;96.60;;;;;;6249633;22;20031;-85
2022/04/12 13:27:30;;;;;;;5.30;2.47;;;19.70;95.70;;;;;;6249929;22;20095;-85
2022/04/12 13:29:57;;;;;;;4.78;2.60;;;19.60;96.80;;;;;;6277144;22;20323;-86
2022/04/12 13:32:23;;;;;;;6.57;2.88;;;19.60;96.50;;;;;;6277273;22;20327;-84
2022/04/12 13:34:48;;;;;;;6.28;3.55;;;19.40;96.60;;;;;;6249566;22;20031;-85